createdAt,value
2018-11-01T00:01:52.924Z,10.34
2018-11-01T00:04:26.917Z,10.39
2018-11-01T00:07:00.906Z,10.37
2018-11-01T00:09:34.864Z,10.42
2018-11-01T00:12:08.769Z,10.47
2018-11-01T00:14:42.646Z,10.34
2018-11-01T00:17:16.539Z,10.31
2018-11-01T00:19:50.502Z,10.28
2018-11-01T00:22:24.373Z,10.37
2018-11-01T00:24:58.302Z,10.43
2018-11-01T00:27:32.250Z,10.40
2018-11-01T00:30:06.597Z,10.43
2018-11-01T00:32:40.691Z,10.43
2018-11-01T00:35:14.653Z,10.47
2018-11-01T00:37:48.607Z,10.40
2018-11-01T00:40:22.573Z,10.39
2018-11-01T00:42:56.388Z,10.34
2018-11-01T00:45:30.293Z,10.19
2018-11-01T00:48:04.216Z,10.22
2018-11-01T00:50:38.152Z,10.21
2018-11-01T00:53:12.084Z,10.23
2018-11-01T00:55:45.971Z,10.08
2018-11-01T00:58:19.824Z,9.97
2018-11-01T01:00:53.696Z,9.92
2018-11-01T01:03:27.532Z,9.96
2018-11-01T01:06:01.557Z,9.96
2018-11-01T01:08:35.437Z,9.85
2018-11-01T01:11:09.291Z,9.73
2018-11-01T01:13:44.108Z,9.69
2018-11-01T01:16:18.061Z,9.66
2018-11-01T01:18:51.929Z,9.68
2018-11-01T01:21:25.916Z,9.63
2018-11-01T01:23:59.893Z,9.66
2018-11-01T01:26:33.824Z,9.55
2018-11-01T01:29:07.685Z,9.53
2018-11-01T01:31:41.701Z,9.45
2018-11-01T01:34:15.602Z,9.39
2018-11-01T01:36:50.510Z,9.32
2018-11-01T01:39:24.334Z,9.29
2018-11-01T01:41:58.191Z,9.33
2018-11-01T01:44:32.022Z,9.32
2018-11-01T01:47:05.941Z,9.31
2018-11-01T01:49:39.823Z,9.27
2018-11-01T01:52:13.692Z,9.21
2018-11-01T01:54:47.558Z,9.16
2018-11-01T01:57:21.415Z,9.13
2018-11-01T01:59:55.341Z,9.12
2018-11-01T02:02:29.225Z,9.12
2018-11-01T02:05:03.114Z,9.05
2018-11-01T02:07:37.028Z,9.04
2018-11-01T02:10:13.215Z,9.01
2018-11-01T02:12:47.092Z,8.98
2018-11-01T02:15:21.732Z,8.91
2018-11-01T02:17:55.599Z,8.95
2018-11-01T02:20:29.476Z,8.94
2018-11-01T02:23:03.348Z,8.87
2018-11-01T02:25:37.327Z,8.84
2018-11-01T02:28:16.683Z,8.79
2018-11-01T02:30:50.636Z,8.77
2018-11-01T02:33:24.686Z,8.65
2018-11-01T02:35:58.535Z,8.57
2018-11-01T02:38:32.460Z,8.50
2018-11-01T02:41:06.330Z,8.48
2018-11-01T02:43:40.326Z,8.46
2018-11-01T02:46:14.227Z,8.47
2018-11-01T02:48:48.070Z,8.49
2018-11-01T02:51:21.976Z,8.38
2018-11-01T02:53:55.829Z,8.40
2018-11-01T02:56:29.657Z,8.43
2018-11-01T02:59:03.529Z,8.46
2018-11-01T03:01:37.365Z,8.48
2018-11-01T03:04:11.396Z,8.47
2018-11-01T03:06:45.314Z,8.47
2018-11-01T03:09:19.252Z,8.46
2018-11-01T03:11:53.160Z,8.51
2018-11-01T03:14:27.010Z,8.56
2018-11-01T03:17:00.901Z,8.52
2018-11-01T03:19:35.324Z,8.53
2018-11-01T03:22:09.199Z,8.48
2018-11-01T03:24:43.064Z,8.45
2018-11-01T03:27:16.861Z,8.44
2018-11-01T03:29:50.741Z,8.34
2018-11-01T03:32:24.576Z,8.37
2018-11-01T03:34:58.513Z,8.40
2018-11-01T03:37:32.342Z,8.36
2018-11-01T03:40:07.591Z,8.31
2018-11-01T03:42:42.167Z,8.19
2018-11-01T03:45:16.110Z,8.07
2018-11-01T03:47:49.936Z,8.15
2018-11-01T03:50:24.038Z,8.20
2018-11-01T03:52:57.886Z,8.20
2018-11-01T03:55:31.751Z,8.17
2018-11-01T03:58:05.632Z,8.10
2018-11-01T04:00:39.742Z,8.08
2018-11-01T04:03:13.561Z,8.03
2018-11-01T04:05:47.452Z,7.93
2018-11-01T04:08:21.288Z,7.94
2018-11-01T04:10:55.267Z,7.79
2018-11-01T04:13:29.140Z,7.75
2018-11-01T04:16:02.967Z,7.80
2018-11-01T04:18:36.759Z,7.67
2018-11-01T04:21:10.660Z,7.69
2018-11-01T04:23:44.566Z,7.69
2018-11-01T04:26:18.511Z,7.73
2018-11-01T04:28:52.335Z,7.77
2018-11-01T04:31:26.244Z,7.77
2018-11-01T04:34:00.093Z,7.77
2018-11-01T04:36:34.020Z,7.77
2018-11-01T04:39:10.425Z,7.77
2018-11-01T04:41:44.295Z,7.74
2018-11-01T04:44:18.240Z,7.73
2018-11-01T04:46:52.157Z,7.65
2018-11-01T04:49:25.972Z,7.61
2018-11-01T04:51:59.906Z,7.59
2018-11-01T04:54:33.713Z,7.60
2018-11-01T04:57:07.603Z,7.62
2018-11-01T04:59:41.400Z,7.64
2018-11-01T05:02:15.285Z,7.68
2018-11-01T05:04:49.154Z,7.69
2018-11-01T05:07:23.001Z,7.64
2018-11-01T05:09:56.867Z,7.58
2018-11-01T05:12:30.839Z,7.49
2018-11-01T05:15:04.824Z,7.33
2018-11-01T05:17:39.046Z,7.31
2018-11-01T05:20:13.376Z,7.35
2018-11-01T05:22:47.297Z,7.29
2018-11-01T05:25:21.115Z,7.25
2018-11-01T05:27:54.975Z,7.26
2018-11-01T05:30:28.797Z,7.26
2018-11-01T05:33:02.834Z,7.26
2018-11-01T05:35:36.662Z,7.27
2018-11-01T05:38:10.533Z,7.16
2018-11-01T05:40:44.349Z,7.16
2018-11-01T05:43:23.419Z,7.12
2018-11-01T05:45:57.947Z,7.12
2018-11-01T05:48:31.801Z,7.18
2018-11-01T05:51:05.637Z,7.13
2018-11-01T05:53:39.624Z,7.16
2018-11-01T05:56:13.442Z,7.16
2018-11-01T05:58:47.363Z,7.18
2018-11-01T06:01:26.268Z,7.17
2018-11-01T06:04:00.338Z,7.11
2018-11-01T06:06:34.167Z,7.14
2018-11-01T06:09:10.365Z,7.09
2018-11-01T06:11:44.262Z,7.14
2018-11-01T06:14:18.469Z,7.12
2018-11-01T06:16:52.316Z,7.09
2018-11-01T06:19:26.181Z,7.06
2018-11-01T06:22:00.092Z,7.05
2018-11-01T06:24:33.914Z,7.11
2018-11-01T06:27:07.782Z,7.12
2018-11-01T06:29:41.674Z,7.13
2018-11-01T06:32:15.525Z,7.05
2018-11-01T06:34:53.886Z,7.06
2018-11-01T06:37:27.676Z,6.99
2018-11-01T06:40:01.528Z,6.93
2018-11-01T06:42:35.343Z,6.91
2018-11-01T06:45:09.495Z,6.92
2018-11-01T06:47:43.406Z,7.01
2018-11-01T06:50:17.247Z,7.02
2018-11-01T06:52:51.059Z,7.14
2018-11-01T06:55:24.938Z,7.18
2018-11-01T06:57:58.749Z,7.21
2018-11-01T07:00:32.691Z,7.28
2018-11-01T07:03:06.497Z,7.25
2018-11-01T07:05:40.430Z,7.29
2018-11-01T07:08:14.282Z,7.31
2018-11-01T07:10:48.141Z,7.31
2018-11-01T07:13:22.053Z,7.32
2018-11-01T07:15:55.986Z,7.43
2018-11-01T07:18:29.931Z,7.46
2018-11-01T07:21:03.798Z,7.46
2018-11-01T07:23:37.723Z,7.46
2018-11-01T07:26:11.688Z,7.50
2018-11-01T07:28:45.399Z,7.61
2018-11-01T07:31:19.231Z,7.70
2018-11-01T07:33:53.252Z,7.77
2018-11-01T07:36:27.121Z,7.83
2018-11-01T07:39:00.965Z,7.89
2018-11-01T07:41:34.910Z,7.91
2018-11-01T07:44:08.886Z,8.00
2018-11-01T07:46:42.698Z,8.09
2018-11-01T07:49:16.474Z,8.18
2018-11-01T07:51:50.306Z,8.27
2018-11-01T07:54:24.115Z,8.37
2018-11-01T07:56:58.081Z,8.42
2018-11-01T07:59:31.931Z,8.42
2018-11-01T08:02:06.151Z,8.47
2018-11-01T08:04:40.052Z,8.40
2018-11-01T08:07:14.235Z,8.47
2018-11-01T08:09:48.031Z,8.52
2018-11-01T08:12:21.881Z,8.56
2018-11-01T08:14:55.716Z,8.66
2018-11-01T08:17:29.644Z,8.77
2018-11-01T08:20:04.539Z,8.80
2018-11-01T08:22:38.318Z,8.94
2018-11-01T08:25:12.862Z,8.95
2018-11-01T08:27:46.758Z,8.95
2018-11-01T08:30:20.696Z,9.02
2018-11-01T08:32:54.519Z,8.95
2018-11-01T08:35:28.373Z,9.25
2018-11-01T08:38:02.324Z,9.35
2018-11-01T08:40:36.191Z,9.51
2018-11-01T08:43:10.059Z,9.63
2018-11-01T08:45:43.921Z,9.74
2018-11-01T08:48:17.793Z,9.84
2018-11-01T08:51:54.976Z,9.96
2018-11-01T08:54:28.814Z,10.02
2018-11-01T08:57:02.661Z,10.15
2018-11-01T08:59:36.537Z,10.31
2018-11-01T09:02:10.557Z,10.39
2018-11-01T09:04:44.387Z,10.47
2018-11-01T09:07:18.243Z,10.50
2018-11-01T09:09:52.126Z,10.59
2018-11-01T09:12:25.945Z,10.62
2018-11-01T09:14:59.828Z,10.69
2018-11-01T09:17:33.634Z,10.69
2018-11-01T09:20:08.388Z,10.60
2018-11-01T09:22:43.107Z,10.77
2018-11-01T09:25:16.981Z,10.80
2018-11-01T09:27:50.864Z,10.92
2018-11-01T09:30:24.804Z,10.80
2018-11-01T09:32:58.743Z,10.90
2018-11-01T09:35:32.550Z,10.97
2018-11-01T09:38:06.567Z,11.13
2018-11-01T09:40:40.457Z,11.19
2018-11-01T09:43:14.285Z,11.30
2018-11-01T09:45:48.173Z,11.43
2018-11-01T09:48:22.060Z,11.46
2018-11-01T09:50:55.914Z,11.66
2018-11-01T09:53:29.749Z,11.57
2018-11-01T09:56:03.676Z,11.63
2018-11-01T09:58:38.016Z,11.65
2018-11-01T10:01:12.093Z,11.77
2018-11-01T10:03:45.807Z,12.02
2018-11-01T10:06:19.868Z,12.05
2018-11-01T10:08:53.700Z,12.28
2018-11-01T10:11:27.564Z,12.51
2018-11-01T10:14:01.364Z,12.47
2018-11-01T10:16:35.654Z,12.41
2018-11-01T10:19:10.340Z,12.44
2018-11-01T10:21:44.184Z,12.61
2018-11-01T10:24:18.095Z,12.69
2018-11-01T10:26:52.009Z,12.61
2018-11-01T10:29:25.855Z,12.63
2018-11-01T10:32:00.060Z,12.48
2018-11-01T10:34:33.898Z,12.58
2018-11-01T10:37:07.772Z,12.72
2018-11-01T10:39:41.636Z,12.49
2018-11-01T10:42:15.611Z,12.54
2018-11-01T10:44:49.503Z,12.63
2018-11-01T10:47:23.454Z,12.93
2018-11-01T10:49:57.306Z,12.79
2018-11-01T10:52:31.239Z,12.95
2018-11-01T10:55:05.644Z,13.08
2018-11-01T10:57:39.505Z,13.15
2018-11-01T11:00:18.836Z,13.25
2018-11-01T11:02:52.936Z,12.86
2018-11-01T11:05:26.774Z,13.03
2018-11-01T11:08:00.752Z,13.22
2018-11-01T11:10:34.613Z,13.32
2018-11-01T11:13:08.473Z,13.42
2018-11-01T11:15:42.327Z,13.61
2018-11-01T11:18:16.212Z,13.39
2018-11-01T11:20:50.320Z,13.58
2018-11-01T11:23:23.959Z,13.61
2018-11-01T11:25:57.768Z,13.72
2018-11-01T11:28:31.713Z,13.67
2018-11-01T11:31:05.591Z,13.70
2018-11-01T11:33:39.710Z,13.59
2018-11-01T11:36:13.521Z,13.49
2018-11-01T11:38:47.450Z,13.59
2018-11-01T11:41:21.268Z,13.74
2018-11-01T11:43:55.127Z,13.80
2018-11-01T11:46:28.951Z,13.73
2018-11-01T11:49:03.180Z,13.81
2018-11-01T11:51:37.582Z,13.70
2018-11-01T11:54:11.535Z,13.70
2018-11-01T11:56:45.371Z,13.62
2018-11-01T11:59:19.249Z,13.61
2018-11-01T12:01:53.087Z,13.66
2018-11-01T12:04:26.937Z,13.39
2018-11-01T12:07:00.793Z,13.49
2018-11-01T12:09:34.633Z,13.50
2018-11-01T12:12:08.504Z,13.60
2018-11-01T12:14:42.354Z,13.66
2018-11-01T12:17:16.433Z,13.80
2018-11-01T12:19:50.415Z,13.76
2018-11-01T12:22:24.349Z,13.73
2018-11-01T12:24:58.199Z,13.85
2018-11-01T12:27:32.010Z,13.84
2018-11-01T12:30:06.723Z,13.92
2018-11-01T12:32:40.560Z,13.93
2018-11-01T12:35:14.423Z,13.99
2018-11-01T12:37:48.249Z,13.85
2018-11-01T12:40:22.083Z,13.90
2018-11-01T12:42:55.909Z,13.99
2018-11-01T12:45:29.788Z,14.03
2018-11-01T12:48:03.620Z,13.90
2018-11-01T12:50:37.479Z,13.92
2018-11-01T12:53:11.295Z,13.96
2018-11-01T12:55:45.147Z,13.89
2018-11-01T12:58:18.983Z,13.85
2018-11-01T13:00:52.915Z,13.76
2018-11-01T13:03:26.829Z,13.78
2018-11-01T13:06:00.685Z,13.73
2018-11-01T13:08:34.554Z,13.72
2018-11-01T13:11:08.412Z,13.71
2018-11-01T13:13:42.226Z,13.46
2018-11-01T13:16:16.046Z,13.35
2018-11-01T13:18:49.911Z,13.31
2018-11-01T13:21:23.776Z,13.43
2018-11-01T13:23:57.608Z,13.44
2018-11-01T13:26:31.454Z,13.48
2018-11-01T13:29:05.811Z,13.53
2018-11-01T13:31:39.666Z,13.45
2018-11-01T13:34:13.533Z,13.34
2018-11-01T13:36:47.344Z,13.10
2018-11-01T13:39:21.205Z,13.08
2018-11-01T13:41:54.994Z,13.22
2018-11-01T13:44:28.930Z,13.32
2018-11-01T13:47:02.796Z,13.38
2018-11-01T13:49:36.646Z,13.35
2018-11-01T13:52:10.513Z,13.33
2018-11-01T13:54:44.516Z,13.26
2018-11-01T13:57:18.660Z,13.22
2018-11-01T13:59:52.489Z,13.18
2018-11-01T14:02:26.331Z,13.14
2018-11-01T14:05:00.304Z,13.21
2018-11-01T14:07:34.126Z,13.25
2018-11-01T14:10:10.218Z,13.19
2018-11-01T14:12:44.158Z,12.92
2018-11-01T14:15:18.793Z,12.93
2018-11-01T14:17:52.212Z,12.94
2018-11-01T14:20:26.243Z,12.95
2018-11-01T14:23:00.062Z,12.96
2018-11-01T14:25:33.982Z,12.99
2018-11-01T14:28:07.799Z,12.98
2018-11-01T14:30:41.750Z,12.96
2018-11-01T14:33:15.567Z,12.79
2018-11-01T14:35:49.553Z,12.81
2018-11-01T14:38:23.431Z,12.74
2018-11-01T14:40:57.279Z,12.73
2018-11-01T14:43:31.114Z,12.64
2018-11-01T14:46:04.976Z,12.68
2018-11-01T14:48:38.831Z,12.77
2018-11-01T14:51:12.765Z,12.77
2018-11-01T14:53:46.697Z,12.82
2018-11-01T14:56:22.116Z,12.74
2018-11-01T14:58:56.208Z,12.71
2018-11-01T15:01:28.838Z,12.76
2018-11-01T15:04:02.660Z,12.82
2018-11-01T15:06:36.610Z,12.88
2018-11-01T15:09:11.820Z,12.92
2018-11-01T15:11:45.663Z,12.95
2018-11-01T15:14:19.508Z,12.94
2018-11-01T15:16:53.403Z,12.88
2018-11-01T15:19:27.270Z,12.82
2018-11-01T15:22:01.689Z,12.71
2018-11-01T15:24:35.587Z,12.71
2018-11-01T15:27:09.523Z,12.51
2018-11-01T15:29:43.394Z,12.49
2018-11-01T15:32:22.504Z,12.55
2018-11-01T15:34:56.576Z,12.38
2018-11-01T15:37:30.572Z,12.43
2018-11-01T15:40:04.529Z,12.38
2018-11-01T15:42:38.597Z,12.36
2018-11-01T15:45:15.149Z,12.36
2018-11-01T15:47:50.279Z,12.31
2018-11-01T15:50:25.512Z,12.28
2018-11-01T15:53:00.632Z,12.33
2018-11-01T15:55:35.431Z,12.35
2018-11-01T15:58:10.377Z,12.35
2018-11-01T16:00:45.495Z,12.35
2018-11-01T16:03:21.241Z,12.31
2018-11-01T16:05:57.285Z,12.34
2018-11-01T16:08:32.323Z,12.27
2018-11-01T16:11:08.226Z,12.21
2018-11-01T16:13:43.739Z,12.19
2018-11-01T16:16:18.897Z,12.16
2018-11-01T16:18:54.719Z,12.10
2018-11-01T16:21:30.818Z,12.15
2018-11-01T16:24:06.505Z,12.16
2018-11-01T16:26:41.691Z,12.04
2018-11-01T16:29:16.725Z,12.07
2018-11-01T16:31:51.975Z,12.10
2018-11-01T16:34:27.722Z,12.11
2018-11-01T16:37:03.606Z,12.03
2018-11-01T16:39:39.708Z,12.03
2018-11-01T16:42:15.923Z,12.04
2018-11-01T16:44:52.667Z,12.00
2018-11-01T16:47:29.286Z,11.93
2018-11-01T16:50:04.951Z,11.80
2018-11-01T16:52:41.206Z,11.66
2018-11-01T16:55:16.415Z,11.68
2018-11-01T16:57:51.463Z,11.72
2018-11-01T17:00:27.187Z,11.72
2018-11-01T17:03:02.620Z,11.59
2018-11-01T17:05:37.733Z,11.60
2018-11-01T17:08:12.670Z,11.56
2018-11-01T17:10:47.856Z,11.57
2018-11-01T17:13:22.958Z,11.54
2018-11-01T17:15:58.974Z,11.45
2018-11-01T17:18:34.500Z,11.43
2018-11-01T17:21:09.344Z,11.35
2018-11-01T17:23:44.406Z,11.40
2018-11-01T17:26:20.455Z,11.42
2018-11-01T17:28:56.086Z,11.45
2018-11-01T17:31:31.373Z,11.44
2018-11-01T17:34:06.905Z,11.41
2018-11-01T17:36:42.335Z,11.36
2018-11-01T17:39:17.546Z,11.39
2018-11-01T17:41:52.902Z,11.38
2018-11-01T17:44:27.926Z,11.34
2018-11-01T17:47:03.778Z,11.26
2018-11-01T17:49:39.833Z,11.29
2018-11-01T17:52:14.709Z,11.30
2018-11-01T17:54:49.400Z,11.36
2018-11-01T17:57:24.741Z,11.32
2018-11-01T17:59:59.897Z,11.34
2018-11-01T18:02:34.648Z,11.32
2018-11-01T18:05:09.184Z,11.37
2018-11-01T18:07:43.124Z,11.38
2018-11-01T18:10:17.002Z,11.37
2018-11-01T18:12:50.848Z,11.35
2018-11-01T18:15:24.721Z,11.37
2018-11-01T18:17:59.085Z,11.35
2018-11-01T18:20:33.141Z,11.32
2018-11-01T18:23:07.139Z,11.31
2018-11-01T18:25:46.357Z,11.31
2018-11-01T18:28:20.872Z,11.33
2018-11-01T18:30:54.967Z,11.36
2018-11-01T18:33:28.876Z,11.31
2018-11-01T18:36:03.068Z,11.27
2018-11-01T18:38:36.956Z,11.28
2018-11-01T18:41:10.989Z,11.22
2018-11-01T18:43:44.870Z,11.22
2018-11-01T18:46:18.809Z,11.15
2018-11-01T18:48:52.744Z,11.06
2018-11-01T18:51:26.859Z,10.97
2018-11-01T18:54:01.767Z,10.87
2018-11-01T18:56:35.675Z,10.82
2018-11-01T18:59:09.877Z,10.77
2018-11-01T19:01:43.779Z,10.78
2018-11-01T19:04:17.623Z,10.74
2018-11-01T19:06:51.888Z,10.77
2018-11-01T19:09:25.821Z,10.79
2018-11-01T19:11:59.735Z,10.85
2018-11-01T19:14:33.690Z,10.85
2018-11-01T19:17:07.648Z,10.90
2018-11-01T19:19:41.600Z,10.91
2018-11-01T19:22:17.566Z,10.92
2018-11-01T19:24:53.700Z,10.95
2018-11-01T19:27:27.848Z,10.95
2018-11-01T19:30:02.920Z,10.95
2018-11-01T19:32:36.930Z,10.93
2018-11-01T19:35:12.057Z,10.91
2018-11-01T19:37:46.069Z,10.89
2018-11-01T19:40:19.980Z,10.88
2018-11-01T19:42:54.712Z,10.80
2018-11-01T19:45:28.759Z,10.74
2018-11-01T19:48:02.743Z,10.72
2018-11-01T19:50:36.576Z,10.65
2018-11-01T19:53:10.477Z,10.57
2018-11-01T19:55:44.395Z,10.47
2018-11-01T19:58:18.315Z,10.46
2018-11-01T20:00:52.321Z,10.41
2018-11-01T20:03:30.419Z,10.37
2018-11-01T20:06:04.688Z,10.44
2018-11-01T20:08:38.983Z,10.48
2018-11-01T20:11:14.105Z,10.46
2018-11-01T20:13:48.249Z,10.50
2018-11-01T20:16:22.430Z,10.59
2018-11-01T20:18:56.982Z,10.59
2018-11-01T20:21:30.870Z,10.55
2018-11-01T20:24:05.108Z,10.59
2018-11-01T20:26:39.028Z,10.54
2018-11-01T20:29:12.930Z,10.60
2018-11-01T20:31:46.844Z,10.62
2018-11-01T20:34:20.790Z,10.64
2018-11-01T20:36:54.677Z,10.62
2018-11-01T20:39:28.562Z,10.63
2018-11-01T20:42:02.435Z,10.63
2018-11-01T20:44:36.452Z,10.64
2018-11-01T20:47:10.346Z,10.63
2018-11-01T20:49:44.301Z,10.63
2018-11-01T20:52:18.187Z,10.62
2018-11-01T20:54:52.103Z,10.62
2018-11-01T20:57:26.236Z,10.59
2018-11-01T20:59:59.941Z,10.50
2018-11-01T21:02:33.907Z,10.47
2018-11-01T21:05:07.971Z,10.46
2018-11-01T21:07:41.835Z,10.48
2018-11-01T21:10:15.783Z,10.47
2018-11-01T21:12:49.666Z,10.46
2018-11-01T21:15:23.549Z,10.43
2018-11-01T21:17:57.464Z,10.47
2018-11-01T21:20:31.355Z,10.48
2018-11-01T21:23:05.725Z,10.47
2018-11-01T21:25:39.651Z,10.50
2018-11-01T21:28:13.523Z,10.56
2018-11-01T21:30:47.433Z,10.49
2018-11-01T21:33:21.294Z,10.50
2018-11-01T21:35:55.323Z,10.51
2018-11-01T21:38:29.085Z,10.59
2018-11-01T21:41:02.940Z,10.64
2018-11-01T21:43:36.811Z,10.65
2018-11-01T21:46:10.698Z,10.72
2018-11-01T21:48:44.695Z,10.74
2018-11-01T21:51:18.601Z,10.77
2018-11-01T21:53:52.482Z,10.74
2018-11-01T21:56:26.418Z,10.73
2018-11-01T21:59:00.276Z,10.67
2018-11-01T22:01:34.190Z,10.62
2018-11-01T22:04:08.035Z,10.64
2018-11-01T22:06:43.280Z,10.57
2018-11-01T22:09:18.040Z,10.58
2018-11-01T22:11:52.082Z,10.58
2018-11-01T22:14:25.917Z,10.53
2018-11-01T22:16:59.881Z,10.44
2018-11-01T22:19:33.782Z,10.39
2018-11-01T22:22:07.771Z,10.34
2018-11-01T22:24:41.850Z,10.38
2018-11-01T22:27:15.820Z,10.41
2018-11-01T22:29:49.684Z,10.38
2018-11-01T22:32:23.613Z,10.39
2018-11-01T22:34:57.827Z,10.34
2018-11-01T22:37:31.972Z,10.35
2018-11-01T22:40:06.037Z,10.31
2018-11-01T22:42:40.031Z,10.32
2018-11-01T22:45:13.876Z,10.27
2018-11-01T22:47:47.769Z,10.24
2018-11-01T22:50:21.657Z,10.23
2018-11-01T22:52:55.608Z,10.21
2018-11-01T22:55:29.493Z,10.10
2018-11-01T22:58:03.485Z,10.02
2018-11-01T23:00:41.582Z,9.94
2018-11-01T23:03:15.486Z,9.87
2018-11-01T23:05:49.350Z,9.78
2018-11-01T23:08:23.297Z,9.77
2018-11-01T23:10:57.161Z,9.69
2018-11-01T23:13:30.998Z,9.65
2018-11-01T23:16:05.104Z,9.63
2018-11-01T23:18:39.065Z,9.59
2018-11-01T23:21:12.998Z,9.56
2018-11-01T23:23:46.897Z,9.61
2018-11-01T23:26:20.856Z,9.65
2018-11-01T23:28:54.690Z,9.62
2018-11-01T23:31:28.612Z,9.62
2018-11-01T23:34:02.587Z,9.63
2018-11-01T23:36:41.581Z,9.60
2018-11-01T23:39:20.577Z,9.52
2018-11-01T23:41:59.561Z,9.58
2018-11-01T23:44:38.564Z,9.65
2018-11-01T23:47:17.522Z,9.67
2018-11-01T23:50:13.733Z,9.70
2018-11-01T23:52:49.546Z,9.77
2018-11-01T23:55:23.444Z,9.78
2018-11-01T23:57:57.285Z,9.83
